Accueil
METAR-TAF:

METAR-TAF

Aéroports :

Hanamaki, Japon

latitude: 39-26N, longitude: 141-08E, altitude: 90 m

Observation

Le bulletin a été fait il y a 15 minutes, à 01:00 UTC
Vent 3 kt de sud-est, variant entre est et sud
Température 0°C
Humidité 86%
Pression 1006 hPa
Visibilité 10 km ou plus
Quelques nuages à une hauteur de 500 ft
Nuages épars à une hauteur de 2000 ft
faibles averses de neige

METAR: RJSI 170100Z 13003KT 080V190 9999 -SHSN FEW005 SCT020 M00/M02 Q1006

Heure: 10:15 (01:15 UTC)


TAF: absent

Observations et prévisions météorologiques de plus de 4000 aéroports (messages METAR et TAF).

Les stations disponibles sont représentées par des disques jaunes et rouges sur la carte.

Passer la souris dessus pour voir le nom de la station.

Cliquer dessus pour voir les observations et prévisions météorologiques.

Pour changer de carte: cliquez sur les boutons verts avec une croix noire pour zoomer, sur le bouton vert avec un tiret pour effectuer un zoom arrière, ou sur les flèches vertes pour les cartes adjacentes.


METAR-TAF: